sensor_id;sensor_type;location;lat;lon;timestamp;temperature;humidity
67804;SHT31;54603;45.638;11.714;2024-03-02T00:00:21;17.04;72.96
67804;SHT31;54603;45.638;11.714;2024-03-02T00:02:49;17.04;72.99
67804;SHT31;54603;45.638;11.714;2024-03-02T00:05:20;17.04;73.01
67804;SHT31;54603;45.638;11.714;2024-03-02T00:07:53;17.03;73.04
67804;SHT31;54603;45.638;11.714;2024-03-02T00:10:25;17.04;73.09
67804;SHT31;54603;45.638;11.714;2024-03-02T00:13:00;17.03;73.10
67804;SHT31;54603;45.638;11.714;2024-03-02T00:15:38;17.03;73.13
67804;SHT31;54603;45.638;11.714;2024-03-02T00:18:24;17.04;73.18
67804;SHT31;54603;45.638;11.714;2024-03-02T00:20:55;17.03;73.20
67804;SHT31;54603;45.638;11.714;2024-03-02T00:23:22;17.02;73.24
67804;SHT31;54603;45.638;11.714;2024-03-02T00:26:06;17.02;73.27
67804;SHT31;54603;45.638;11.714;2024-03-02T00:28:36;17.02;73.28
67804;SHT31;54603;45.638;11.714;2024-03-02T00:33:41;17.02;73.30
67804;SHT31;54603;45.638;11.714;2024-03-02T00:36:10;17.01;73.31
67804;SHT31;54603;45.638;11.714;2024-03-02T00:41:07;17.00;73.40
67804;SHT31;54603;45.638;11.714;2024-03-02T00:43:57;17.00;73.38
67804;SHT31;54603;45.638;11.714;2024-03-02T00:46:42;17.00;73.41
67804;SHT31;54603;45.638;11.714;2024-03-02T00:49:18;17.00;73.44
67804;SHT31;54603;45.638;11.714;2024-03-02T00:51:51;17.01;73.45
67804;SHT31;54603;45.638;11.714;2024-03-02T00:54:19;17.00;73.47
67804;SHT31;54603;45.638;11.714;2024-03-02T00:56:49;17.00;73.47
67804;SHT31;54603;45.638;11.714;2024-03-02T00:59:17;17.02;73.47
67804;SHT31;54603;45.638;11.714;2024-03-02T01:01:43;17.01;73.49
67804;SHT31;54603;45.638;11.714;2024-03-02T01:04:10;17.01;73.50
67804;SHT31;54603;45.638;11.714;2024-03-02T01:06:37;17.02;73.55
67804;SHT31;54603;45.638;11.714;2024-03-02T01:09:03;17.01;73.55
67804;SHT31;54603;45.638;11.714;2024-03-02T01:11:29;17.02;73.58
67804;SHT31;54603;45.638;11.714;2024-03-02T01:13:55;17.02;73.58
67804;SHT31;54603;45.638;11.714;2024-03-02T01:16:21;17.02;73.58
67804;SHT31;54603;45.638;11.714;2024-03-02T01:18:47;17.02;73.60
67804;SHT31;54603;45.638;11.714;2024-03-02T01:21:13;17.02;73.62
67804;SHT31;54603;45.638;11.714;2024-03-02T01:23:39;17.02;73.63
67804;SHT31;54603;45.638;11.714;2024-03-02T01:26:05;17.02;73.66
67804;SHT31;54603;45.638;11.714;2024-03-02T01:28:32;17.02;73.66
67804;SHT31;54603;45.638;11.714;2024-03-02T01:30:58;17.02;73.68
67804;SHT31;54603;45.638;11.714;2024-03-02T01:33:24;17.03;73.70
67804;SHT31;54603;45.638;11.714;2024-03-02T01:35:49;17.04;73.71
67804;SHT31;54603;45.638;11.714;2024-03-02T01:38:15;17.03;73.77
67804;SHT31;54603;45.638;11.714;2024-03-02T01:40:41;17.03;73.78
67804;SHT31;54603;45.638;11.714;2024-03-02T01:43:09;17.04;73.79
67804;SHT31;54603;45.638;11.714;2024-03-02T01:45:35;17.03;73.81
67804;SHT31;54603;45.638;11.714;2024-03-02T01:48:03;17.03;73.83
67804;SHT31;54603;45.638;11.714;2024-03-02T01:50:32;17.04;73.86
67804;SHT31;54603;45.638;11.714;2024-03-02T01:52:59;17.03;73.84
67804;SHT31;54603;45.638;11.714;2024-03-02T01:55:28;17.03;73.86
67804;SHT31;54603;45.638;11.714;2024-03-02T01:57:55;17.04;73.88
67804;SHT31;54603;45.638;11.714;2024-03-02T02:00:21;17.04;73.89
67804;SHT31;54603;45.638;11.714;2024-03-02T02:02:50;17.04;73.89
67804;SHT31;54603;45.638;11.714;2024-03-02T02:05:17;17.04;73.90
67804;SHT31;54603;45.638;11.714;2024-03-02T02:07:49;17.03;73.91
67804;SHT31;54603;45.638;11.714;2024-03-02T02:10:15;17.04;73.93
67804;SHT31;54603;45.638;11.714;2024-03-02T02:12:41;17.04;73.94
67804;SHT31;54603;45.638;11.714;2024-03-02T02:15:21;17.04;73.97
67804;SHT31;54603;45.638;11.714;2024-03-02T02:17:52;17.04;73.97
67804;SHT31;54603;45.638;11.714;2024-03-02T02:20:19;17.04;73.96
67804;SHT31;54603;45.638;11.714;2024-03-02T02:22:58;17.03;73.97
67804;SHT31;54603;45.638;11.714;2024-03-02T02:25:30;17.05;73.99
67804;SHT31;54603;45.638;11.714;2024-03-02T02:27:57;17.03;73.97
67804;SHT31;54603;45.638;11.714;2024-03-02T02:30:24;17.04;73.97
67804;SHT31;54603;45.638;11.714;2024-03-02T02:32:52;17.04;73.96
67804;SHT31;54603;45.638;11.714;2024-03-02T02:35:19;17.03;73.89
67804;SHT31;54603;45.638;11.714;2024-03-02T02:37:45;17.04;73.88
67804;SHT31;54603;45.638;11.714;2024-03-02T02:40:12;17.03;73.81
67804;SHT31;54603;45.638;11.714;2024-03-02T02:42:40;17.04;73.80
67804;SHT31;54603;45.638;11.714;2024-03-02T02:45:06;17.03;73.80
67804;SHT31;54603;45.638;11.714;2024-03-02T02:47:32;17.03;73.80
67804;SHT31;54603;45.638;11.714;2024-03-02T02:50:01;17.03;73.78
67804;SHT31;54603;45.638;11.714;2024-03-02T02:52:31;17.03;73.73
67804;SHT31;54603;45.638;11.714;2024-03-02T02:54:58;17.03;73.77
67804;SHT31;54603;45.638;11.714;2024-03-02T02:57:24;17.03;73.78
67804;SHT31;54603;45.638;11.714;2024-03-02T02:59:52;17.02;73.80
67804;SHT31;54603;45.638;11.714;2024-03-02T03:02:18;17.02;73.83
67804;SHT31;54603;45.638;11.714;2024-03-02T03:04:44;17.03;73.86
67804;SHT31;54603;45.638;11.714;2024-03-02T03:07:10;17.03;73.88
67804;SHT31;54603;45.638;11.714;2024-03-02T03:09:39;17.02;73.91
67804;SHT31;54603;45.638;11.714;2024-03-02T03:12:22;17.03;73.93
67804;SHT31;54603;45.638;11.714;2024-03-02T03:14:48;17.03;73.96
67804;SHT31;54603;45.638;11.714;2024-03-02T03:17:13;17.03;73.92
67804;SHT31;54603;45.638;11.714;2024-03-02T03:19:40;17.01;73.92
67804;SHT31;54603;45.638;11.714;2024-03-02T03:22:05;17.02;73.92
67804;SHT31;54603;45.638;11.714;2024-03-02T03:24:31;17.02;73.92
67804;SHT31;54603;45.638;11.714;2024-03-02T03:26:58;17.02;73.91
67804;SHT31;54603;45.638;11.714;2024-03-02T03:29:24;17.01;73.93
67804;SHT31;54603;45.638;11.714;2024-03-02T03:31:50;17.01;73.90
67804;SHT31;54603;45.638;11.714;2024-03-02T03:34:15;17.02;73.96
67804;SHT31;54603;45.638;11.714;2024-03-02T03:36:42;17.01;73.97
67804;SHT31;54603;45.638;11.714;2024-03-02T03:39:08;17.01;73.98
67804;SHT31;54603;45.638;11.714;2024-03-02T03:41:42;17.01;73.98
67804;SHT31;54603;45.638;11.714;2024-03-02T03:44:08;17.00;73.97
67804;SHT31;54603;45.638;11.714;2024-03-02T03:46:35;17.01;73.93
67804;SHT31;54603;45.638;11.714;2024-03-02T03:49:01;17.01;73.90
67804;SHT31;54603;45.638;11.714;2024-03-02T03:51:29;17.00;73.90
67804;SHT31;54603;45.638;11.714;2024-03-02T03:53:56;17.00;73.87
67804;SHT31;54603;45.638;11.714;2024-03-02T03:56:22;17.00;73.84
67804;SHT31;54603;45.638;11.714;2024-03-02T03:58:48;17.00;73.89
67804;SHT31;54603;45.638;11.714;2024-03-02T04:01:14;17.00;73.92
67804;SHT31;54603;45.638;11.714;2024-03-02T04:03:41;16.99;73.92
67804;SHT31;54603;45.638;11.714;2024-03-02T04:06:07;17.00;73.94
67804;SHT31;54603;45.638;11.714;2024-03-02T04:08:33;17.00;73.90
67804;SHT31;54603;45.638;11.714;2024-03-02T04:11:00;17.00;73.78
67804;SHT31;54603;45.638;11.714;2024-03-02T04:13:27;16.99;73.80
67804;SHT31;54603;45.638;11.714;2024-03-02T04:15:54;16.99;73.80
67804;SHT31;54603;45.638;11.714;2024-03-02T04:18:20;16.99;73.79
67804;SHT31;54603;45.638;11.714;2024-03-02T04:20:46;16.98;73.79
67804;SHT31;54603;45.638;11.714;2024-03-02T04:23:12;16.98;73.78
67804;SHT31;54603;45.638;11.714;2024-03-02T04:25:38;16.98;73.85
67804;SHT31;54603;45.638;11.714;2024-03-02T04:28:04;16.98;73.87
67804;SHT31;54603;45.638;11.714;2024-03-02T04:30:31;16.98;73.90
67804;SHT31;54603;45.638;11.714;2024-03-02T04:32:57;16.97;73.92
67804;SHT31;54603;45.638;11.714;2024-03-02T04:35:23;16.97;73.95
67804;SHT31;54603;45.638;11.714;2024-03-02T04:37:50;16.97;73.98
67804;SHT31;54603;45.638;11.714;2024-03-02T04:40:16;16.97;74.00
67804;SHT31;54603;45.638;11.714;2024-03-02T04:42:41;16.97;73.98
67804;SHT31;54603;45.638;11.714;2024-03-02T04:45:08;16.96;73.97
67804;SHT31;54603;45.638;11.714;2024-03-02T04:47:34;16.97;74.00
67804;SHT31;54603;45.638;11.714;2024-03-02T04:50:01;16.97;74.00
67804;SHT31;54603;45.638;11.714;2024-03-02T04:52:26;16.96;74.00
67804;SHT31;54603;45.638;11.714;2024-03-02T04:54:52;16.96;74.00
67804;SHT31;54603;45.638;11.714;2024-03-02T04:57:37;16.95;74.00
67804;SHT31;54603;45.638;11.714;2024-03-02T05:00:03;16.96;73.99
67804;SHT31;54603;45.638;11.714;2024-03-02T05:02:32;16.95;74.01
67804;SHT31;54603;45.638;11.714;2024-03-02T05:04:58;16.95;74.00
67804;SHT31;54603;45.638;11.714;2024-03-02T05:07:23;16.94;74.00
67804;SHT31;54603;45.638;11.714;2024-03-02T05:09:49;16.94;74.01
67804;SHT31;54603;45.638;11.714;2024-03-02T05:12:15;16.95;74.00
67804;SHT31;54603;45.638;11.714;2024-03-02T05:15:06;16.93;74.03
67804;SHT31;54603;45.638;11.714;2024-03-02T05:17:34;16.93;74.03
67804;SHT31;54603;45.638;11.714;2024-03-02T05:20:02;16.93;74.03
67804;SHT31;54603;45.638;11.714;2024-03-02T05:22:29;16.93;74.04
67804;SHT31;54603;45.638;11.714;2024-03-02T05:24:55;16.94;74.01
67804;SHT31;54603;45.638;11.714;2024-03-02T05:27:22;16.92;74.03
67804;SHT31;54603;45.638;11.714;2024-03-02T05:29:48;16.92;74.02
67804;SHT31;54603;45.638;11.714;2024-03-02T05:32:16;16.93;74.05
67804;SHT31;54603;45.638;11.714;2024-03-02T05:34:41;16.92;74.03
67804;SHT31;54603;45.638;11.714;2024-03-02T05:37:07;16.92;74.02
67804;SHT31;54603;45.638;11.714;2024-03-02T05:39:33;16.93;74.03
67804;SHT31;54603;45.638;11.714;2024-03-02T05:41:59;16.93;74.04
67804;SHT31;54603;45.638;11.714;2024-03-02T05:44:26;16.92;74.04
67804;SHT31;54603;45.638;11.714;2024-03-02T05:46:52;16.92;74.04
67804;SHT31;54603;45.638;11.714;2024-03-02T05:49:18;16.92;74.01
67804;SHT31;54603;45.638;11.714;2024-03-02T05:51:44;16.91;74.02
67804;SHT31;54603;45.638;11.714;2024-03-02T05:54:11;16.92;74.02
67804;SHT31;54603;45.638;11.714;2024-03-02T05:56:37;16.91;74.01
67804;SHT31;54603;45.638;11.714;2024-03-02T05:59:03;16.92;74.02
67804;SHT31;54603;45.638;11.714;2024-03-02T06:01:47;16.91;74.00
67804;SHT31;54603;45.638;11.714;2024-03-02T06:04:15;16.91;74.01
67804;SHT31;54603;45.638;11.714;2024-03-02T06:06:42;16.92;74.01
67804;SHT31;54603;45.638;11.714;2024-03-02T06:09:09;16.92;74.00
67804;SHT31;54603;45.638;11.714;2024-03-02T06:11:37;16.91;74.00
67804;SHT31;54603;45.638;11.714;2024-03-02T06:14:06;16.91;74.01
67804;SHT31;54603;45.638;11.714;2024-03-02T06:16:33;16.92;74.00
67804;SHT31;54603;45.638;11.714;2024-03-02T06:19:00;16.91;74.00
67804;SHT31;54603;45.638;11.714;2024-03-02T06:21:27;16.91;74.00
67804;SHT31;54603;45.638;11.714;2024-03-02T06:23:53;16.92;74.00
67804;SHT31;54603;45.638;11.714;2024-03-02T06:26:19;16.92;74.00
67804;SHT31;54603;45.638;11.714;2024-03-02T06:28:45;16.93;73.99
67804;SHT31;54603;45.638;11.714;2024-03-02T06:31:11;16.93;73.98
67804;SHT31;54603;45.638;11.714;2024-03-02T06:33:37;16.93;73.97
67804;SHT31;54603;45.638;11.714;2024-03-02T06:36:04;16.94;73.97
67804;SHT31;54603;45.638;11.714;2024-03-02T06:38:30;16.94;73.92
67804;SHT31;54603;45.638;11.714;2024-03-02T06:40:58;16.96;73.89
67804;SHT31;54603;45.638;11.714;2024-03-02T06:43:24;17.00;73.88
67804;SHT31;54603;45.638;11.714;2024-03-02T06:45:50;17.01;73.80
67804;SHT31;54603;45.638;11.714;2024-03-02T06:48:19;17.01;73.80
67804;SHT31;54603;45.638;11.714;2024-03-02T06:50:46;17.02;73.80
67804;SHT31;54603;45.638;11.714;2024-03-02T06:53:17;17.03;73.80
67804;SHT31;54603;45.638;11.714;2024-03-02T06:55:43;17.02;73.80
67804;SHT31;54603;45.638;11.714;2024-03-02T06:58:11;17.04;73.73
67804;SHT31;54603;45.638;11.714;2024-03-02T07:00:41;17.04;73.70
67804;SHT31;54603;45.638;11.714;2024-03-02T07:03:09;17.06;73.69
67804;SHT31;54603;45.638;11.714;2024-03-02T07:05:35;17.07;73.67
67804;SHT31;54603;45.638;11.714;2024-03-02T07:08:01;17.08;73.66
67804;SHT31;54603;45.638;11.714;2024-03-02T07:10:30;17.09;73.60
67804;SHT31;54603;45.638;11.714;2024-03-02T07:12:56;17.09;73.62
67804;SHT31;54603;45.638;11.714;2024-03-02T07:15:22;17.10;73.68
67804;SHT31;54603;45.638;11.714;2024-03-02T07:18:09;17.09;73.68
67804;SHT31;54603;45.638;11.714;2024-03-02T07:20:35;17.09;73.69
67804;SHT31;54603;45.638;11.714;2024-03-02T07:23:01;17.09;73.71
67804;SHT31;54603;45.638;11.714;2024-03-02T07:25:26;17.08;73.70
67804;SHT31;54603;45.638;11.714;2024-03-02T07:27:52;17.08;73.71
67804;SHT31;54603;45.638;11.714;2024-03-02T07:30:19;17.07;73.73
67804;SHT31;54603;45.638;11.714;2024-03-02T07:32:49;17.07;73.76
67804;SHT31;54603;45.638;11.714;2024-03-02T07:35:40;17.07;73.78
67804;SHT31;54603;45.638;11.714;2024-03-02T07:39:00;17.07;73.80
67804;SHT31;54603;45.638;11.714;2024-03-02T07:42:09;17.06;73.80
67804;SHT31;54603;45.638;11.714;2024-03-02T07:45:01;17.06;73.83
67804;SHT31;54603;45.638;11.714;2024-03-02T07:48:00;17.07;73.86
67804;SHT31;54603;45.638;11.714;2024-03-02T07:50:49;17.06;73.88
67804;SHT31;54603;45.638;11.714;2024-03-02T07:53:40;17.07;73.88
67804;SHT31;54603;45.638;11.714;2024-03-02T07:56:40;17.07;73.90
67804;SHT31;54603;45.638;11.714;2024-03-02T07:59:51;17.07;73.90
67804;SHT31;54603;45.638;11.714;2024-03-02T08:02:46;17.08;73.89
67804;SHT31;54603;45.638;11.714;2024-03-02T08:05:20;17.08;73.87
67804;SHT31;54603;45.638;11.714;2024-03-02T08:08:03;17.08;73.90
67804;SHT31;54603;45.638;11.714;2024-03-02T08:10:50;17.09;73.84
67804;SHT31;54603;45.638;11.714;2024-03-02T08:13:21;17.09;73.83
67804;SHT31;54603;45.638;11.714;2024-03-02T08:15:46;17.09;73.81
67804;SHT31;54603;45.638;11.714;2024-03-02T08:18:13;17.10;73.80
67804;SHT31;54603;45.638;11.714;2024-03-02T08:20:39;17.11;73.80
67804;SHT31;54603;45.638;11.714;2024-03-02T08:23:06;17.12;73.71
67804;SHT31;54603;45.638;11.714;2024-03-02T08:25:33;17.12;73.70
67804;SHT31;54603;45.638;11.714;2024-03-02T08:27:59;17.13;73.69
67804;SHT31;54603;45.638;11.714;2024-03-02T08:30:25;17.14;73.61
67804;SHT31;54603;45.638;11.714;2024-03-02T08:32:52;17.16;73.60
67804;SHT31;54603;45.638;11.714;2024-03-02T08:35:19;17.16;73.56
67804;SHT31;54603;45.638;11.714;2024-03-02T08:37:50;17.16;73.34
67804;SHT31;54603;45.638;11.714;2024-03-02T08:40:24;17.17;73.12
67804;SHT31;54603;45.638;11.714;2024-03-02T08:43:02;17.16;73.11
67804;SHT31;54603;45.638;11.714;2024-03-02T08:45:28;17.17;73.05
67804;SHT31;54603;45.638;11.714;2024-03-02T08:47:55;17.18;72.91
67804;SHT31;54603;45.638;11.714;2024-03-02T08:50:20;17.19;72.92
67804;SHT31;54603;45.638;11.714;2024-03-02T08:52:46;17.19;72.91
67804;SHT31;54603;45.638;11.714;2024-03-02T08:55:12;17.19;72.93
67804;SHT31;54603;45.638;11.714;2024-03-02T08:57:38;17.20;72.99
67804;SHT31;54603;45.638;11.714;2024-03-02T09:00:04;17.21;72.98
67804;SHT31;54603;45.638;11.714;2024-03-02T09:02:33;17.21;72.99
67804;SHT31;54603;45.638;11.714;2024-03-02T09:04:59;17.21;73.00
67804;SHT31;54603;45.638;11.714;2024-03-02T09:07:25;17.22;72.87
67804;SHT31;54603;45.638;11.714;2024-03-02T09:09:51;17.22;72.90
67804;SHT31;54603;45.638;11.714;2024-03-02T09:12:17;17.23;72.93
67804;SHT31;54603;45.638;11.714;2024-03-02T09:14:45;17.22;73.01
67804;SHT31;54603;45.638;11.714;2024-03-02T09:17:12;17.22;73.02
67804;SHT31;54603;45.638;11.714;2024-03-02T09:19:39;17.23;72.94
67804;SHT31;54603;45.638;11.714;2024-03-02T09:22:06;17.22;72.81
67804;SHT31;54603;45.638;11.714;2024-03-02T09:24:32;17.23;72.87
67804;SHT31;54603;45.638;11.714;2024-03-02T09:26:58;17.23;72.88
67804;SHT31;54603;45.638;11.714;2024-03-02T09:29:25;17.23;72.85
67804;SHT31;54603;45.638;11.714;2024-03-02T09:31:51;17.24;72.90
67804;SHT31;54603;45.638;11.714;2024-03-02T09:34:17;17.24;72.93
67804;SHT31;54603;45.638;11.714;2024-03-02T09:36:43;17.24;72.99
67804;SHT31;54603;45.638;11.714;2024-03-02T09:39:09;17.24;73.00
67804;SHT31;54603;45.638;11.714;2024-03-02T09:41:38;17.24;73.00
67804;SHT31;54603;45.638;11.714;2024-03-02T09:44:05;17.25;73.00
67804;SHT31;54603;45.638;11.714;2024-03-02T09:46:31;17.25;73.00
67804;SHT31;54603;45.638;11.714;2024-03-02T09:49:00;17.26;72.97
67804;SHT31;54603;45.638;11.714;2024-03-02T09:51:58;17.25;72.90
67804;SHT31;54603;45.638;11.714;2024-03-02T09:54:24;17.25;72.85
67804;SHT31;54603;45.638;11.714;2024-03-02T09:56:50;17.25;72.88
67804;SHT31;54603;45.638;11.714;2024-03-02T09:59:16;17.25;72.77
67804;SHT31;54603;45.638;11.714;2024-03-02T10:01:57;17.25;72.67
67804;SHT31;54603;45.638;11.714;2024-03-02T10:04:28;17.25;72.50
67804;SHT31;54603;45.638;11.714;2024-03-02T10:07:09;17.25;72.31
67804;SHT31;54603;45.638;11.714;2024-03-02T10:09:40;17.25;72.21
67804;SHT31;54603;45.638;11.714;2024-03-02T10:12:08;17.23;72.22
67804;SHT31;54603;45.638;11.714;2024-03-02T10:14:36;17.24;72.21
67804;SHT31;54603;45.638;11.714;2024-03-02T10:17:04;17.23;72.33
67804;SHT31;54603;45.638;11.714;2024-03-02T10:19:34;17.23;72.36
67804;SHT31;54603;45.638;11.714;2024-03-02T10:22:04;17.23;72.30
67804;SHT31;54603;45.638;11.714;2024-03-02T10:24:41;17.23;72.28
67804;SHT31;54603;45.638;11.714;2024-03-02T10:27:15;17.21;72.29
67804;SHT31;54603;45.638;11.714;2024-03-02T10:29:46;17.20;72.18
67804;SHT31;54603;45.638;11.714;2024-03-02T10:32:12;17.19;72.22
67804;SHT31;54603;45.638;11.714;2024-03-02T10:34:42;17.19;72.26
67804;SHT31;54603;45.638;11.714;2024-03-02T10:37:10;17.19;72.48
67804;SHT31;54603;45.638;11.714;2024-03-02T10:39:37;17.19;72.48
67804;SHT31;54603;45.638;11.714;2024-03-02T10:42:05;17.19;72.38
67804;SHT31;54603;45.638;11.714;2024-03-02T10:44:32;17.19;72.43
67804;SHT31;54603;45.638;11.714;2024-03-02T10:47:00;17.19;72.45
67804;SHT31;54603;45.638;11.714;2024-03-02T10:49:30;17.20;72.66
67804;SHT31;54603;45.638;11.714;2024-03-02T10:52:01;17.20;72.63
67804;SHT31;54603;45.638;11.714;2024-03-02T10:54:27;17.20;72.57
67804;SHT31;54603;45.638;11.714;2024-03-02T10:57:01;17.20;72.56
67804;SHT31;54603;45.638;11.714;2024-03-02T10:59:34;17.20;72.53
67804;SHT31;54603;45.638;11.714;2024-03-02T11:02:28;17.20;72.49
67804;SHT31;54603;45.638;11.714;2024-03-02T11:04:56;17.21;72.55
67804;SHT31;54603;45.638;11.714;2024-03-02T11:07:32;17.21;72.66
67804;SHT31;54603;45.638;11.714;2024-03-02T11:09:59;17.22;72.79
67804;SHT31;54603;45.638;11.714;2024-03-02T11:12:38;17.22;72.81
67804;SHT31;54603;45.638;11.714;2024-03-02T11:15:15;17.23;72.95
67804;SHT31;54603;45.638;11.714;2024-03-02T11:17:46;17.22;72.97
67804;SHT31;54603;45.638;11.714;2024-03-02T11:20:13;17.23;73.04
67804;SHT31;54603;45.638;11.714;2024-03-02T11:22:40;17.23;73.11
67804;SHT31;54603;45.638;11.714;2024-03-02T11:25:06;17.24;73.12
67804;SHT31;54603;45.638;11.714;2024-03-02T11:33:02;17.24;72.83
67804;SHT31;54603;45.638;11.714;2024-03-02T11:35:36;17.25;72.86
67804;SHT31;54603;45.638;11.714;2024-03-02T11:38:03;17.24;72.89
67804;SHT31;54603;45.638;11.714;2024-03-02T11:40:29;17.24;72.91
67804;SHT31;54603;45.638;11.714;2024-03-02T11:42:59;17.25;73.01
67804;SHT31;54603;45.638;11.714;2024-03-02T11:45:26;17.25;73.14
67804;SHT31;54603;45.638;11.714;2024-03-02T11:47:56;17.25;73.28
67804;SHT31;54603;45.638;11.714;2024-03-02T11:50:36;17.25;73.15
67804;SHT31;54603;45.638;11.714;2024-03-02T11:53:07;17.25;73.07
67804;SHT31;54603;45.638;11.714;2024-03-02T11:55:39;17.26;72.96
67804;SHT31;54603;45.638;11.714;2024-03-02T11:58:06;17.25;72.93
67804;SHT31;54603;45.638;11.714;2024-03-02T12:00:33;17.26;73.03
67804;SHT31;54603;45.638;11.714;2024-03-02T12:03:06;17.27;73.11
67804;SHT31;54603;45.638;11.714;2024-03-02T12:05:34;17.27;73.02
67804;SHT31;54603;45.638;11.714;2024-03-02T12:08:05;17.27;72.87
67804;SHT31;54603;45.638;11.714;2024-03-02T12:10:33;17.27;72.80
67804;SHT31;54603;45.638;11.714;2024-03-02T12:13:04;17.27;72.73
67804;SHT31;54603;45.638;11.714;2024-03-02T12:15:33;17.27;72.70
67804;SHT31;54603;45.638;11.714;2024-03-02T12:18:00;17.26;72.68
67804;SHT31;54603;45.638;11.714;2024-03-02T12:20:28;17.26;72.66
67804;SHT31;54603;45.638;11.714;2024-03-02T12:23:00;17.26;72.81
67804;SHT31;54603;45.638;11.714;2024-03-02T12:25:27;17.26;72.80
67804;SHT31;54603;45.638;11.714;2024-03-02T12:27:56;17.26;72.86
67804;SHT31;54603;45.638;11.714;2024-03-02T12:30:23;17.26;72.94
67804;SHT31;54603;45.638;11.714;2024-03-02T12:32:49;17.27;73.10
67804;SHT31;54603;45.638;11.714;2024-03-02T12:35:17;17.27;73.17
67804;SHT31;54603;45.638;11.714;2024-03-02T12:37:44;17.27;72.97
67804;SHT31;54603;45.638;11.714;2024-03-02T12:40:12;17.27;73.05
67804;SHT31;54603;45.638;11.714;2024-03-02T12:42:39;17.27;73.02
67804;SHT31;54603;45.638;11.714;2024-03-02T12:45:07;17.27;73.06
67804;SHT31;54603;45.638;11.714;2024-03-02T12:47:36;17.27;73.04
67804;SHT31;54603;45.638;11.714;2024-03-02T12:50:05;17.27;73.10
67804;SHT31;54603;45.638;11.714;2024-03-02T12:52:31;17.28;73.20
67804;SHT31;54603;45.638;11.714;2024-03-02T12:55:01;17.27;73.34
67804;SHT31;54603;45.638;11.714;2024-03-02T12:57:30;17.28;73.35
67804;SHT31;54603;45.638;11.714;2024-03-02T13:00:01;17.28;73.32
67804;SHT31;54603;45.638;11.714;2024-03-02T13:02:34;17.29;73.34
67804;SHT31;54603;45.638;11.714;2024-03-02T13:05:11;17.28;73.21
67804;SHT31;54603;45.638;11.714;2024-03-02T13:07:38;17.29;73.16
67804;SHT31;54603;45.638;11.714;2024-03-02T13:10:04;17.28;73.11
67804;SHT31;54603;45.638;11.714;2024-03-02T13:12:34;17.29;73.01
67804;SHT31;54603;45.638;11.714;2024-03-02T13:15:02;17.28;73.00
67804;SHT31;54603;45.638;11.714;2024-03-02T13:17:29;17.28;72.96
67804;SHT31;54603;45.638;11.714;2024-03-02T13:19:55;17.28;72.93
67804;SHT31;54603;45.638;11.714;2024-03-02T13:22:25;17.28;72.93
67804;SHT31;54603;45.638;11.714;2024-03-02T13:24:52;17.28;72.95
67804;SHT31;54603;45.638;11.714;2024-03-02T13:27:22;17.28;72.95
67804;SHT31;54603;45.638;11.714;2024-03-02T13:29:48;17.29;72.97
67804;SHT31;54603;45.638;11.714;2024-03-02T13:32:14;17.29;72.84
67804;SHT31;54603;45.638;11.714;2024-03-02T13:34:45;17.29;72.73
67804;SHT31;54603;45.638;11.714;2024-03-02T13:37:12;17.29;72.78
67804;SHT31;54603;45.638;11.714;2024-03-02T13:39:38;17.29;72.88
67804;SHT31;54603;45.638;11.714;2024-03-02T13:42:07;17.30;72.97
67804;SHT31;54603;45.638;11.714;2024-03-02T13:44:35;17.30;73.08
67804;SHT31;54603;45.638;11.714;2024-03-02T13:47:02;17.31;73.03
67804;SHT31;54603;45.638;11.714;2024-03-02T13:49:29;17.29;73.03
67804;SHT31;54603;45.638;11.714;2024-03-02T13:52:00;17.30;73.06
67804;SHT31;54603;45.638;11.714;2024-03-02T13:54:39;17.30;73.15
67804;SHT31;54603;45.638;11.714;2024-03-02T13:57:07;17.29;73.23
67804;SHT31;54603;45.638;11.714;2024-03-02T13:59:34;17.29;73.28
67804;SHT31;54603;45.638;11.714;2024-03-02T14:02:01;17.30;73.20
67804;SHT31;54603;45.638;11.714;2024-03-02T14:04:34;17.29;73.17
67804;SHT31;54603;45.638;11.714;2024-03-02T14:07:01;17.29;73.24
67804;SHT31;54603;45.638;11.714;2024-03-02T14:09:27;17.31;73.28
67804;SHT31;54603;45.638;11.714;2024-03-02T14:11:54;17.30;73.33
67804;SHT31;54603;45.638;11.714;2024-03-02T14:14:20;17.30;73.32
67804;SHT31;54603;45.638;11.714;2024-03-02T14:16:46;17.30;73.32
67804;SHT31;54603;45.638;11.714;2024-03-02T14:19:12;17.28;73.35
67804;SHT31;54603;45.638;11.714;2024-03-02T14:21:39;17.28;73.38
67804;SHT31;54603;45.638;11.714;2024-03-02T14:24:05;17.29;73.42
67804;SHT31;54603;45.638;11.714;2024-03-02T14:26:34;17.28;73.45
67804;SHT31;54603;45.638;11.714;2024-03-02T14:29:02;17.28;73.48
67804;SHT31;54603;45.638;11.714;2024-03-02T14:31:28;17.28;73.55
67804;SHT31;54603;45.638;11.714;2024-03-02T14:33:56;17.28;73.51
67804;SHT31;54603;45.638;11.714;2024-03-02T14:36:22;17.29;73.59
67804;SHT31;54603;45.638;11.714;2024-03-02T14:38:48;17.27;73.52
67804;SHT31;54603;45.638;11.714;2024-03-02T14:41:14;17.27;73.51
67804;SHT31;54603;45.638;11.714;2024-03-02T14:43:40;17.27;73.59
67804;SHT31;54603;45.638;11.714;2024-03-02T14:46:06;17.27;73.60
67804;SHT31;54603;45.638;11.714;2024-03-02T14:48:38;17.27;73.63
67804;SHT31;54603;45.638;11.714;2024-03-02T14:51:04;17.27;73.73
67804;SHT31;54603;45.638;11.714;2024-03-02T14:53:30;17.27;73.76
67804;SHT31;54603;45.638;11.714;2024-03-02T14:55:56;17.27;73.77
67804;SHT31;54603;45.638;11.714;2024-03-02T14:58:22;17.27;73.82
67804;SHT31;54603;45.638;11.714;2024-03-02T15:00:48;17.27;73.84
67804;SHT31;54603;45.638;11.714;2024-03-02T15:03:14;17.26;73.91
67804;SHT31;54603;45.638;11.714;2024-03-02T15:05:40;17.26;74.00
67804;SHT31;54603;45.638;11.714;2024-03-02T15:08:06;17.27;74.03
67804;SHT31;54603;45.638;11.714;2024-03-02T15:10:32;17.27;74.09
67804;SHT31;54603;45.638;11.714;2024-03-02T15:12:58;17.27;74.19
67804;SHT31;54603;45.638;11.714;2024-03-02T15:15:24;17.27;74.18
67804;SHT31;54603;45.638;11.714;2024-03-02T15:17:50;17.26;74.21
67804;SHT31;54603;45.638;11.714;2024-03-02T15:20:17;17.26;74.29
67804;SHT31;54603;45.638;11.714;2024-03-02T15:22:45;17.26;74.31
67804;SHT31;54603;45.638;11.714;2024-03-02T15:25:11;17.26;74.37
67804;SHT31;54603;45.638;11.714;2024-03-02T15:27:38;17.27;74.35
67804;SHT31;54603;45.638;11.714;2024-03-02T15:30:05;17.26;74.34
67804;SHT31;54603;45.638;11.714;2024-03-02T15:32:31;17.27;74.38
67804;SHT31;54603;45.638;11.714;2024-03-02T15:34:59;17.26;74.40
67804;SHT31;54603;45.638;11.714;2024-03-02T15:37:25;17.27;74.46